KPGV Airport Information

Runway Information
Runway 02 Length 6500 ft width 150 ft
Elevation 22 ft Threshold ft Heading 8
Runway 20 Length 6500 ft Width 150 ft
Elevation 27 ft Threshold 350 ft Heading 188
Runway 08 Length 4998 ft width 150 ft
Elevation 25 ft Threshold ft Heading 67
Runway 26 Length 4998 ft Width 150 ft
Elevation 25 ft Threshold ft Heading 247
Runway 15 Length 2687 ft width 150 ft
Elevation 26 ft Threshold ft Heading 128
Runway 33 Length 2687 ft Width 150 ft
Elevation 25 ft Threshold ft Heading 308
Airport Frequencies
Type AWOS Name AWOS 3 Frequency 128.425 MHZ
Type CLD Name CLNC DEL Frequency 122.35 MHZ
Type CNTR Name WASHINGTON Frequency 135.5 MHZ
Type UNIC Name CTAF/UNICO Frequency 122.8 MHZ
Airport Navaids
Airport Weather Information & NOTAM
ADDS - METARS form results

(1800 UTC 27 January 2023)
Data provider http://aviationweather.gov/metar/data/
 
METAR text: KPGV 271755Z AUTO 30008KT 10SM SCT060 10/M05 A3020 RMK AO2
Conditions at: KPGV (PITT GREENVILLE , NC, US) observed 1755 UTC 27 January 2023
Temperature: 10.0°C (50°F)
Dewpoint: -5.0°C (23°F) [RH = 34%]
Pressure (altimeter): 30.20 inches Hg (1022.8 mb)
Winds: from the WNW (300 degrees) at 9 MPH (8 knots; 4.1 m/s)
Visibility: 10 or more miles (16+ km)
Ceiling: at least 12,000 feet AGL
Clouds: scattered clouds at 6000 feet AGL
Weather: automated observation with no human augmentation;
there may or may not be significant weather present at this time

METAR text: KPGV 271735Z AUTO 28006KT 10SM SCT060 10/M05 A3021 RMK AO2
Conditions at: KPGV (PITT GREENVILLE , NC, US) observed 1735 UTC 27 January 2023
Temperature: 10.0°C (50°F)
Dewpoint: -5.0°C (23°F) [RH = 34%]
Pressure (altimeter): 30.21 inches Hg (1023.1 mb)
Winds: from the W (280 degrees) at 7 MPH (6 knots; 3.1 m/s)
Visibility: 10 or more miles (16+ km)
Ceiling: at least 12,000 feet AGL
Clouds: scattered clouds at 6000 feet AGL
Weather: automated observation with no human augmentation;
there may or may not be significant weather present at this time

METAR text: KPGV 271715Z AUTO 24005KT 10SM CLR 10/M04 A3022 RMK AO2
Conditions at: KPGV (PITT GREENVILLE , NC, US) observed 1715 UTC 27 January 2023
Temperature: 10.0°C (50°F)
Dewpoint: -4.0°C (25°F) [RH = 37%]
Pressure (altimeter): 30.22 inches Hg (1023.5 mb)
Winds: from the WSW (240 degrees) at 6 MPH (5 knots; 2.6 m/s)
Visibility: 10 or more miles (16+ km)
Ceiling: at least 12,000 feet AGL
Clouds: sky clear below 12,000 feet AGL
Weather: automated observation with no human augmentation;
there may or may not be significant weather present at this time

Forecast for: KPGV (PITT GREENVILLE , NC, US)
Text: KPGV 271729Z 2718/2818 25006KT P6SM SKC
Forecast period: 1800 UTC 27 January 2023 to 0100 UTC 28 January 2023
Forecast type: FROM: standard forecast or significant change
Winds: from the WSW (250 degrees) at 7 MPH (6 knots; 3.1 m/s)
Visibility: 6 or more miles (10+ km)
Clouds: clear skies
Weather: no significant weather forecast for this period
Text: FM280100 00000KT P6SM SKC
Forecast period: 0100 to 1600 UTC 28 January 2023
Forecast type: FROM: standard forecast or significant change
Winds: calm
Visibility: 6 or more miles (10+ km)
Clouds: clear skies
Weather: no significant weather forecast for this period
Text: FM281600 24004KT P6SM SKC AMD LTD TO CLD VIS AND WIND
Forecast period: 1600 to 1800 UTC 28 January 2023
Forecast type: FROM: standard forecast or significant change
Winds: from the WSW (240 degrees) at 5 MPH (4 knots; 2.1 m/s)
Visibility: 6 or more miles (10+ km)
Clouds: clear skies
Weather: no significant weather forecast for this period